createdAt,value
2022-12-06T00:05:12.471Z,2.20
2022-12-06T00:10:20.252Z,2.20
2022-12-06T00:15:29.594Z,2.20
2022-12-06T00:20:44.461Z,2.20
2022-12-06T00:25:53.466Z,2.20
2022-12-06T00:31:05.019Z,2.20
2022-12-06T00:36:19.801Z,2.30
2022-12-06T00:41:26.446Z,2.30
2022-12-06T00:46:33.304Z,2.30
2022-12-06T00:51:40.323Z,2.30
2022-12-06T00:56:47.789Z,2.30
2022-12-06T01:01:57.826Z,2.30
2022-12-06T01:07:06.465Z,2.30
2022-12-06T01:12:17.364Z,2.30
2022-12-06T01:17:27.240Z,2.40
2022-12-06T01:22:34.103Z,2.30
2022-12-06T01:27:43.040Z,2.40
2022-12-06T01:32:51.207Z,2.30
2022-12-06T01:38:03.010Z,2.30
2022-12-06T01:43:06.920Z,2.30
2022-12-06T01:48:21.777Z,2.40
2022-12-06T01:53:33.499Z,2.30
2022-12-06T01:58:43.665Z,2.40
2022-12-06T02:03:57.393Z,2.40
2022-12-06T02:14:38.444Z,2.40
2022-12-06T02:20:06.856Z,2.40
2022-12-06T02:25:50.886Z,2.40
2022-12-06T02:31:08.998Z,2.40
2022-12-06T02:36:35.083Z,2.40
2022-12-06T02:41:52.505Z,2.40
2022-12-06T02:47:01.046Z,2.40
2022-12-06T02:52:08.776Z,2.40
2022-12-06T02:57:19.596Z,2.40
2022-12-06T03:02:43.109Z,2.40
2022-12-06T03:08:31.352Z,2.40
2022-12-06T03:14:12.094Z,2.40
2022-12-06T03:19:39.918Z,2.40
2022-12-06T03:24:49.611Z,2.40
2022-12-06T03:30:02.692Z,2.40
2022-12-06T03:35:14.444Z,2.40
2022-12-06T03:40:32.728Z,2.50
2022-12-06T03:45:46.105Z,2.50
2022-12-06T03:50:58.705Z,2.50
2022-12-06T03:56:04.863Z,2.50
2022-12-06T04:01:10.346Z,2.50
2022-12-06T04:06:18.017Z,2.50
2022-12-06T04:11:24.794Z,2.50
2022-12-06T04:16:48.619Z,2.50
2022-12-06T04:22:04.771Z,2.50
2022-12-06T04:27:28.577Z,2.50
2022-12-06T04:32:51.836Z,2.60
2022-12-06T04:38:25.216Z,2.60
2022-12-06T04:43:44.586Z,2.60
2022-12-06T04:48:56.102Z,2.50
2022-12-06T04:54:05.747Z,2.50
2022-12-06T04:59:13.988Z,2.60
2022-12-06T05:04:22.531Z,2.60
2022-12-06T05:09:32.063Z,2.60
2022-12-06T05:14:43.773Z,2.60
2022-12-06T05:19:50.814Z,2.60
2022-12-06T05:24:57.577Z,2.60
2022-12-06T05:35:42.885Z,2.60
2022-12-06T05:40:52.944Z,2.60
2022-12-06T05:45:59.520Z,2.60
2022-12-06T05:51:11.078Z,2.60
2022-12-06T05:56:20.969Z,2.60
2022-12-06T06:01:32.095Z,2.60
2022-12-06T06:06:39.669Z,2.60
2022-12-06T06:11:49.078Z,2.70
2022-12-06T06:17:02.611Z,2.70
2022-12-06T06:22:13.939Z,2.70
2022-12-06T06:27:19.202Z,2.70
2022-12-06T06:32:26.794Z,2.70
2022-12-06T06:37:39.536Z,2.70
2022-12-06T06:42:50.242Z,2.70
2022-12-06T06:47:58.888Z,2.70
2022-12-06T06:53:07.222Z,2.70
2022-12-06T06:58:29.880Z,2.70
2022-12-06T07:03:42.771Z,2.80
2022-12-06T07:08:52.482Z,2.80
2022-12-06T07:14:03.564Z,2.80
2022-12-06T07:19:15.158Z,2.80
2022-12-06T07:24:27.117Z,2.90
2022-12-06T07:29:37.652Z,2.90
2022-12-06T07:34:45.534Z,2.90
2022-12-06T07:39:59.799Z,2.90
2022-12-06T07:45:15.556Z,2.90
2022-12-06T07:55:58.306Z,3.00
2022-12-06T08:01:06.732Z,3.00
2022-12-06T08:12:00.678Z,3.00
2022-12-06T08:23:12.286Z,3.10
2022-12-06T08:28:24.108Z,3.10
2022-12-06T08:33:30.506Z,3.10
2022-12-06T08:38:42.760Z,3.20
2022-12-06T08:43:48.536Z,3.20
2022-12-06T08:49:07.420Z,3.20
2022-12-06T08:54:16.940Z,3.20
2022-12-06T08:59:29.282Z,3.20
2022-12-06T09:04:37.548Z,3.20
2022-12-06T09:09:46.676Z,3.20
2022-12-06T09:14:54.941Z,3.30
2022-12-06T09:20:08.134Z,3.30
2022-12-06T09:25:17.721Z,3.20
2022-12-06T09:30:36.549Z,3.20
2022-12-06T09:35:50.739Z,3.30
2022-12-06T09:41:30.016Z,3.30
2022-12-06T09:47:12.980Z,3.30
2022-12-06T09:58:32.497Z,3.40
2022-12-06T10:04:02.435Z,3.40
2022-12-06T10:15:33.034Z,3.40
2022-12-06T10:26:57.174Z,3.40
2022-12-06T10:32:44.617Z,3.40
2022-12-06T10:38:24.041Z,3.40
2022-12-06T10:49:47.450Z,3.50
2022-12-06T10:55:33.376Z,3.50
2022-12-06T11:01:07.092Z,3.60
2022-12-06T11:06:43.980Z,3.60
2022-12-06T11:11:52.693Z,3.60
2022-12-06T11:17:06.909Z,3.60
2022-12-06T11:22:37.888Z,3.60
2022-12-06T11:27:52.417Z,3.60
2022-12-06T11:32:57.865Z,3.60
2022-12-06T11:38:07.664Z,3.60
2022-12-06T11:43:25.413Z,3.60
2022-12-06T11:48:41.298Z,3.60
2022-12-06T11:54:22.235Z,3.60
2022-12-06T11:59:34.109Z,3.70
2022-12-06T12:04:51.731Z,3.70
2022-12-06T12:10:29.185Z,3.70
2022-12-06T12:15:43.254Z,3.70
2022-12-06T12:26:30.959Z,3.90
2022-12-06T12:31:59.811Z,3.90
2022-12-06T12:37:11.993Z,3.90
2022-12-06T12:42:33.566Z,3.80
2022-12-06T12:47:38.845Z,3.80
2022-12-06T12:52:50.163Z,3.90
2022-12-06T12:58:10.973Z,3.90
2022-12-06T13:03:54.114Z,3.90
2022-12-06T13:08:50.848Z,3.90
2022-12-06T13:14:00.753Z,4.00
2022-12-06T13:19:16.807Z,4.00
2022-12-06T13:24:37.486Z,4.00
2022-12-06T13:30:14.431Z,4.00
2022-12-06T13:35:42.580Z,4.00
2022-12-06T13:40:51.241Z,4.00
2022-12-06T13:57:22.432Z,4.00
2022-12-06T14:02:48.573Z,4.00
2022-12-06T14:07:58.385Z,4.00
2022-12-06T14:13:10.683Z,4.00
2022-12-06T14:18:55.627Z,4.00
2022-12-06T14:48:21.960Z,4.00
2022-12-06T15:05:42.478Z,4.00
2022-12-06T15:16:40.672Z,3.90
2022-12-06T15:21:49.066Z,3.90
2022-12-06T15:26:59.892Z,3.90
2022-12-06T15:32:24.904Z,3.90
2022-12-06T15:37:55.019Z,3.90
2022-12-06T15:55:00.989Z,3.90
2022-12-06T16:06:16.810Z,3.90
2022-12-06T16:11:59.193Z,3.80
2022-12-06T16:17:20.446Z,3.80
2022-12-06T16:22:50.232Z,3.80
2022-12-06T16:27:58.291Z,3.80
2022-12-06T16:33:14.864Z,3.80
2022-12-06T16:38:25.995Z,3.80
2022-12-06T16:43:35.333Z,3.80
2022-12-06T16:48:44.195Z,3.80
2022-12-06T16:54:01.265Z,3.70
2022-12-06T16:59:11.266Z,3.70
2022-12-06T17:04:19.098Z,3.70
2022-12-06T17:09:31.412Z,3.70
2022-12-06T17:15:06.833Z,3.70
2022-12-06T17:20:21.089Z,3.70
2022-12-06T17:25:39.105Z,3.60
2022-12-06T17:31:15.643Z,3.70
2022-12-06T17:36:08.736Z,3.60
2022-12-06T17:41:45.769Z,3.60
2022-12-06T17:53:00.139Z,3.60
2022-12-06T18:04:16.177Z,3.60
2022-12-06T18:09:15.411Z,3.60
2022-12-06T18:14:25.889Z,3.60
2022-12-06T18:19:38.417Z,3.50
2022-12-06T18:24:54.460Z,3.60
2022-12-06T18:30:23.864Z,3.60
2022-12-06T18:47:25.102Z,3.50
2022-12-06T18:52:41.020Z,3.50
2022-12-06T18:57:54.325Z,3.50
2022-12-06T19:03:05.102Z,3.50
2022-12-06T19:08:16.959Z,3.50
2022-12-06T19:13:51.635Z,3.50
2022-12-06T19:19:17.104Z,3.50
2022-12-06T19:24:44.833Z,3.50
2022-12-06T19:30:26.252Z,3.40
2022-12-06T19:35:40.626Z,3.40
2022-12-06T19:41:00.335Z,3.40
2022-12-06T19:51:49.918Z,3.40
2022-12-06T19:56:59.201Z,3.40
2022-12-06T20:02:10.057Z,3.40
2022-12-06T20:07:26.146Z,3.40
2022-12-06T20:12:34.806Z,3.40
2022-12-06T20:17:46.989Z,3.40
2022-12-06T20:22:57.240Z,3.40
2022-12-06T20:28:13.313Z,3.30
2022-12-06T20:33:40.684Z,3.40
2022-12-06T20:38:48.418Z,3.30
2022-12-06T20:43:56.066Z,3.30
2022-12-06T20:49:23.342Z,3.30
2022-12-06T20:54:36.345Z,3.30
2022-12-06T20:59:46.648Z,3.30
2022-12-06T21:05:00.967Z,3.30
2022-12-06T21:10:12.857Z,3.30
2022-12-06T21:15:26.842Z,3.30
2022-12-06T21:20:38.328Z,3.30
2022-12-06T21:25:51.979Z,3.30
2022-12-06T21:36:39.187Z,3.30
2022-12-06T21:47:43.008Z,3.20
2022-12-06T21:53:16.262Z,3.20
2022-12-06T21:58:30.498Z,3.20
2022-12-06T22:03:38.612Z,3.20
2022-12-06T22:09:12.218Z,3.20
2022-12-06T22:20:00.505Z,3.20
2022-12-06T22:25:08.588Z,3.20
2022-12-06T22:30:17.397Z,3.20
2022-12-06T22:35:24.070Z,3.20
2022-12-06T22:41:08.636Z,3.20
2022-12-06T22:46:26.942Z,3.20
2022-12-06T22:51:38.529Z,3.20
2022-12-06T22:57:08.613Z,3.10
2022-12-06T23:02:17.385Z,3.10
2022-12-06T23:07:26.278Z,3.10
2022-12-06T23:12:57.928Z,3.10
2022-12-06T23:18:08.256Z,3.10
2022-12-06T23:23:20.937Z,3.10
2022-12-06T23:28:57.494Z,3.00
2022-12-06T23:40:17.085Z,3.00
2022-12-06T23:45:26.867Z,3.00
2022-12-06T23:50:40.087Z,2.90
